Terminal Aerodrome Forecast
Issued by NWS

Home | Current Version | Previous Version | Text Only | Print | Product List | Glossary On
Versions: 1 2 3 4 5 6 7 8 9 10 11 12
000
FTUS46 KOTX 221128
TAFMWH
TAF
KMWH 221128Z 2212/2312 02005KT P6SM SKC
     FM221900 19006KT P6SM SKC
     FM230300 20003KT P6SM FEW200=

USA.gov is the U.S. government's official web portal to all federal, state and local government web resources and services.